Time;durP1;ratioP1;P1;durP2;ratioP2;P2;SDS_P1;SDS_P2;PMS_P1;PMS_P2;Temp;Humidity;BMP_temperature;BMP_pressure;BME280_temperature;BME280_humidity;BME280_pressure;Samples;Min_cycle;Max_cycle;Signal;HPM_P1;HPM_P2
2022/06/22 00:01:55;;;;;;;3.02;2.70;;;;;;;12.73;86.78;100195.52;1749233;80;25864;-81
2022/06/22 00:04:39;;;;;;;7.87;3.30;;;;;;;12.75;86.66;100198.30;1723105;81;28100;-81
2022/06/22 00:07:20;;;;;;;6.90;3.70;;;;;;;12.74;86.72;100196.67;1723920;81;26300;-80
2022/06/22 00:09:46;;;;;;;;;;;;;;;12.71;86.52;100203.80;1721199;81;26114;-80
2022/06/22 00:12:26;;;;;;;8.53;3.15;;;;;;;12.73;86.75;100210.30;1753007;81;26860;-81
2022/06/22 00:14:56;;;;;;;4.47;2.60;;;;;;;12.73;86.77;100211.64;1716131;82;25868;-80
2022/06/22 00:17:35;;;;;;;5.72;3.70;;;;;;;12.72;86.50;100210.84;1774718;79;26178;-81
2022/06/22 00:20:12;;;;;;;10.00;4.35;;;;;;;12.72;86.48;100215.38;1747444;79;25808;-81
2022/06/22 00:22:50;;;;;;;4.87;3.37;;;;;;;12.73;86.52;100219.70;1752985;79;25756;-81
2022/06/22 00:25:36;;;;;;;5.08;3.12;;;;;;;12.72;86.56;100227.47;1751433;80;26589;-80
2022/06/22 00:28:33;;;;;;;7.65;3.17;;;;;;;12.72;86.69;100228.81;1752864;80;25842;-80
2022/06/22 00:31:23;;;;;;;4.90;3.05;;;;;;;12.71;86.73;100236.05;1757468;80;27442;-81
2022/06/22 00:34:10;;;;;;;5.72;3.00;;;;;;;12.69;86.75;100236.77;1751298;80;25777;-81
2022/06/22 00:36:48;;;;;;;7.97;3.40;;;;;;;12.65;86.68;100229.33;1741168;80;25743;-81
2022/06/22 00:39:22;;;;;;;8.65;2.95;;;;;;;12.61;86.70;100232.13;1754855;80;26710;-80
2022/06/22 00:42:14;;;;;;;10.32;4.15;;;;;;;12.60;87.00;100235.33;1765616;80;25792;-81
2022/06/22 00:44:35;;;;;;;4.25;3.10;;;;;;;12.58;86.92;100235.22;1747015;80;28321;-81
2022/06/22 00:47:09;;;;;;;6.10;3.10;;;;;;;12.58;86.98;100233.37;1758760;80;25349;-81
2022/06/22 00:49:37;;;;;;;5.60;2.95;;;;;;;12.56;86.83;100222.52;1759121;80;25785;-81
2022/06/22 00:52:08;;;;;;;4.97;3.08;;;;;;;12.57;87.07;100229.05;1746500;80;26543;-81
2022/06/22 00:54:36;;;;;;;5.50;2.95;;;;;;;12.58;87.32;100223.13;1763202;80;25795;-81
2022/06/22 00:57:11;;;;;;;4.60;3.40;;;;;;;12.57;87.01;100220.16;1766015;79;27622;-81
2022/06/22 01:00:01;;;;;;;6.67;2.98;;;;;;;12.57;87.00;100224.19;1750452;80;25733;-80
2022/06/22 01:02:55;;;;;;;7.05;3.12;;;;;;;12.59;86.80;100226.98;1751640;80;25849;-81
2022/06/22 01:05:37;;;;;;;4.47;3.10;;;;;;;12.52;86.66;100228.84;1758842;80;26865;-80
2022/06/22 01:08:18;;;;;;;7.20;4.80;;;;;;;12.51;86.82;100231.74;1745205;80;25787;-81
2022/06/22 01:10:57;;;;;;;;;;;;;;;12.49;86.90;100231.13;1765524;80;27478;-81
2022/06/22 01:13:32;;;;;;;5.20;3.52;;;;;;;12.46;87.10;100234.21;1719903;80;25956;-81
2022/06/22 01:16:03;;;;;;;3.17;2.72;;;;;;;12.40;87.34;100232.66;1756162;80;25752;-81
2022/06/22 01:18:35;;;;;;;3.80;3.12;;;;;;;12.38;87.47;100230.69;1759996;80;26889;-81
2022/06/22 01:21:25;;;;;;;5.22;4.03;;;;;;;12.38;87.59;100227.20;1746029;80;25786;-81
2022/06/22 01:24:00;;;;;;;13.00;3.77;;;;;;;12.35;87.98;100227.09;1734439;80;28317;-81
2022/06/22 01:26:50;;;;;;;7.22;4.25;;;;;;;12.33;88.12;100242.59;1765845;80;25817;-81
2022/06/22 01:29:23;;;;;;;6.42;3.50;;;;;;;12.36;88.32;100248.88;1769511;80;25713;-81
2022/06/22 01:32:03;;;;;;;5.75;3.60;;;;;;;12.36;88.24;100237.30;1764134;79;26031;-81
2022/06/22 01:34:37;;;;;;;5.30;4.20;;;;;;;12.38;88.20;100240.63;1733532;81;25530;-81
2022/06/22 01:37:09;;;;;;;5.47;4.92;;;;;;;12.31;87.94;100240.63;1766975;79;27489;-81
2022/06/22 01:39:35;;;;;;;6.80;3.70;;;;;;;12.26;87.90;100239.58;1746884;80;25953;-81
2022/06/22 01:42:15;;;;;;;8.93;4.45;;;;;;;12.26;87.95;100240.41;1771829;80;25974;-81
2022/06/22 01:44:50;;;;;;;8.88;4.28;;;;;;;12.28;87.89;100239.69;1752609;80;26064;-81
2022/06/22 01:47:25;;;;;;;8.30;5.28;;;;;;;12.27;87.60;100239.36;1736481;81;25974;-81
2022/06/22 01:50:05;;;;;;;12.18;5.30;;;;;;;12.23;87.49;100234.09;1772615;80;27518;-81
2022/06/22 01:52:46;;;;;;;6.50;4.83;;;;;;;12.20;87.47;100237.22;1765186;80;25900;-81
2022/06/22 01:55:29;;;;;;;6.80;4.83;;;;;;;12.17;87.29;100238.95;1754842;80;25803;-81
2022/06/22 01:58:17;;;;;;;10.35;9.25;;;;;;;12.16;87.15;100241.34;1740129;80;26892;-81
2022/06/22 02:00:48;;;;;;;11.55;10.40;;;;;;;12.15;87.49;100256.30;1759398;80;25846;-81
2022/06/22 02:03:20;;;;;;;;;;;;;;;12.11;87.93;100255.06;1760131;80;27451;-81
2022/06/22 02:09:09;;;;;;;7.47;6.15;;;;;;;12.04;88.45;100261.76;1734946;81;25790;-81
2022/06/22 02:11:40;;;;;;;9.83;6.30;;;;;;;12.00;88.78;100262.37;1737882;80;26841;-81
2022/06/22 02:14:16;;;;;;;10.78;7.08;;;;;;;11.96;89.10;100251.73;1770526;80;25908;-81
2022/06/22 02:16:52;;;;;;;9.13;7.15;;;;;;;11.95;89.34;100253.61;1763572;79;27423;-82
2022/06/22 02:19:19;;;;;;;8.63;7.12;;;;;;;11.98;89.59;100253.69;1771688;80;26098;-82
2022/06/22 02:21:52;;;;;;;12.95;8.33;;;;;;;11.99;89.50;100256.70;1769548;79;25745;-81
2022/06/22 02:24:33;;;;;;;12.53;7.78;;;;;;;12.01;89.63;100260.84;1765177;79;26146;-81
2022/06/22 02:27:13;;;;;;;14.90;7.45;;;;;;;12.00;89.59;100264.55;1761024;80;25799;-81
2022/06/22 02:29:46;;;;;;;11.05;7.40;;;;;;;12.02;89.67;100260.30;1749147;81;27457;-82
2022/06/22 02:32:18;;;;;;;13.13;8.08;;;;;;;12.06;89.72;100259.70;1749982;80;25911;-81
2022/06/22 02:34:48;;;;;;;8.55;6.70;;;;;;;12.09;89.43;100259.30;1744963;81;25820;-82
2022/06/22 02:37:17;;;;;;;8.93;7.37;;;;;;;12.12;89.36;100247.33;1750666;80;26333;-82
2022/06/22 02:39:49;;;;;;;12.15;6.83;;;;;;;12.11;88.93;100253.20;1783334;79;25940;-82
2022/06/22 02:45:01;;;;;;;8.70;5.60;;;;;;;12.09;88.55;100246.38;1730685;82;25962;-81
2022/06/22 02:47:47;;;;;;;6.65;5.92;;;;;;;12.09;88.58;100243.70;1730560;81;25789;-81
2022/06/22 02:50:41;;;;;;;6.40;5.50;;;;;;;12.10;88.63;100248.05;1737495;81;26314;-82
2022/06/22 02:53:25;;;;;;;6.65;5.00;;;;;;;12.09;88.50;100251.75;1753321;80;25772;-81
2022/06/22 02:55:53;;;;;;;8.23;5.40;;;;;;;12.08;88.45;100257.63;1749261;80;27468;-81
2022/06/22 02:58:31;;;;;;;7.42;5.20;;;;;;;12.08;88.43;100264.34;1752645;80;25831;-82
2022/06/22 03:01:02;;;;;;;8.93;5.42;;;;;;;12.09;88.51;100257.13;1756622;80;25325;-81
2022/06/22 03:03:29;;;;;;;8.35;6.10;;;;;;;12.11;88.62;100257.23;1720061;80;26957;-81
2022/06/22 03:05:57;;;;;;;7.97;5.47;;;;;;;12.11;88.56;100256.41;1752259;80;25606;-82
2022/06/22 03:08:25;;;;;;;9.30;5.58;;;;;;;12.10;88.64;100250.73;1736622;80;27080;-81
2022/06/22 03:11:01;;;;;;;8.73;6.10;;;;;;;12.10;88.76;100251.54;1768036;79;25907;-81
2022/06/22 03:13:43;;;;;;;6.90;5.58;;;;;;;12.12;88.75;100251.36;1769818;79;26475;-81
2022/06/22 03:16:31;;;;;;;7.22;5.60;;;;;;;12.14;88.86;100248.78;1740405;80;26599;-81
2022/06/22 03:19:02;;;;;;;7.92;5.42;;;;;;;12.19;88.74;100242.77;1742116;81;25836;-81
2022/06/22 03:21:28;;;;;;;11.33;5.85;;;;;;;12.23;88.55;100251.55;1762248;79;27444;-82
2022/06/22 03:24:15;;;;;;;6.80;6.03;;;;;;;12.27;88.68;100254.67;1733437;82;26159;-81
2022/06/22 03:26:47;;;;;;;11.33;6.50;;;;;;;12.28;88.86;100253.63;1746088;81;25839;-82
2022/06/22 03:29:31;;;;;;;9.93;6.17;;;;;;;12.29;89.01;100250.76;1746016;82;26147;-82
2022/06/22 03:32:31;;;;;;;8.48;6.30;;;;;;;12.35;89.23;100255.30;1745867;82;25811;-81
2022/06/22 03:35:12;;;;;;;9.80;6.30;;;;;;;12.42;89.33;100269.24;1760638;80;28306;-82
2022/06/22 03:37:44;;;;;;;10.75;6.97;;;;;;;12.49;89.30;100279.48;1751118;80;26161;-81
2022/06/22 03:40:31;;;;;;;7.45;6.47;;;;;;;12.52;89.31;100276.36;1746138;81;25785;-81
2022/06/22 03:43:18;;;;;;;12.60;7.40;;;;;;;12.55;89.22;100278.14;1738430;81;26076;-84
2022/06/22 03:45:55;;;;;;;14.18;8.03;;;;;;;12.58;89.55;100270.16;1746011;82;25997;-84
2022/06/22 03:48:30;;;;;;;9.98;7.70;;;;;;;12.61;89.64;100263.87;1746117;80;27450;-85
2022/06/22 03:51:13;;;;;;;10.13;7.78;;;;;;;12.62;89.63;100267.36;1746088;82;25408;-85
2022/06/22 03:53:50;;;;;;;7.28;5.70;;;;;;;12.66;89.96;100260.02;1746485;81;25876;-81
2022/06/22 03:56:22;;;;;;;8.38;6.12;;;;;;;12.71;90.45;100260.23;1697241;82;26081;-82
2022/06/22 03:58:51;;;;;;;9.45;5.75;;;;;;;12.72;90.19;100263.24;1735700;80;25819;-82
2022/06/22 04:01:19;;;;;;;7.78;5.85;;;;;;;12.80;90.40;100264.36;1730658;82;27465;-82
2022/06/22 04:03:46;;;;;;;7.08;5.80;;;;;;;12.87;90.42;100271.08;1753419;80;25919;-82
2022/06/22 04:06:27;;;;;;;5.92;4.85;;;;;;;12.93;90.55;100268.38;1742112;80;25605;-82
2022/06/22 04:08:53;;;;;;;7.53;4.58;;;;;;;13.00;90.62;100265.13;1748319;80;34557;-83
2022/06/22 04:11:25;;;;;;;9.95;4.35;;;;;;;13.10;90.76;100265.58;1732073;82;26600;-83
2022/06/22 04:14:11;;;;;;;6.05;4.37;;;;;;;13.22;90.76;100263.55;1745945;80;28077;-81
2022/06/22 04:16:42;;;;;;;4.83;3.95;;;;;;;13.32;90.66;100267.98;1729129;82;25307;-81
2022/06/22 04:19:32;;;;;;;3.98;3.65;;;;;;;13.40;90.63;100279.84;1742397;82;25808;-81
2022/06/22 04:22:10;;;;;;;5.45;4.03;;;;;;;13.46;90.36;100277.65;1720424;81;26912;-81
2022/06/22 04:24:58;;;;;;;6.72;4.05;;;;;;;13.56;90.57;100270.77;1732716;82;26435;-81
2022/06/22 04:27:32;;;;;;;6.50;3.52;;;;;;;13.66;90.52;100274.37;1714776;82;28340;-81
2022/06/22 04:30:07;;;;;;;8.05;3.47;;;;;;;13.73;90.56;100272.44;1728024;82;25792;-81
2022/06/22 04:32:42;;;;;;;7.58;3.75;;;;;;;13.81;89.97;100278.95;1744434;82;25741;-80
2022/06/22 04:35:25;;;;;;;5.60;3.55;;;;;;;13.87;89.85;100284.30;1745332;82;26071;-82
2022/06/22 04:38:10;;;;;;;4.85;3.80;;;;;;;13.94;89.84;100286.95;1753960;79;25794;-81
2022/06/22 04:41:26;;;;;;;5.08;3.67;;;;;;;14.00;89.49;100290.12;1752642;81;27441;-81
2022/06/22 04:43:56;;;;;;;4.92;3.90;;;;;;;14.05;89.54;100286.24;1748812;80;26099;-81
2022/06/22 04:46:37;;;;;;;6.42;3.85;;;;;;;14.10;89.28;100286.94;1764638;80;25769;-81
2022/06/22 04:49:08;;;;;;;5.50;3.80;;;;;;;14.14;89.42;100281.42;1753962;80;26078;-82
2022/06/22 04:51:38;;;;;;;4.33;3.60;;;;;;;14.18;89.14;100280.77;1737378;81;26554;-80
2022/06/22 04:54:12;;;;;;;5.22;3.50;;;;;;;14.24;89.27;100284.48;1745309;80;27445;-81
2022/06/22 04:56:43;;;;;;;6.80;3.60;;;;;;;14.28;89.31;100292.43;1745620;81;25902;-81
2022/06/22 04:59:12;;;;;;;;;;;;;;;14.34;89.20;100286.20;1745531;80;26561;-81
2022/06/22 05:01:53;;;;;;;8.60;3.67;;;;;;;14.38;89.22;100280.67;1744698;81;26024;-81
2022/06/22 05:04:24;;;;;;;5.45;3.55;;;;;;;14.45;89.71;100288.19;1756552;80;25859;-81
2022/06/22 05:07:25;;;;;;;6.08;3.90;;;;;;;14.52;89.87;100284.93;1761089;80;28056;-81
2022/06/22 05:09:56;;;;;;;5.15;3.92;;;;;;;14.63;89.43;100297.67;1763412;80;25737;-81
2022/06/22 05:12:26;;;;;;;4.87;3.60;;;;;;;14.76;89.26;100296.21;1766539;80;25764;-81
2022/06/22 05:14:55;;;;;;;8.38;4.33;;;;;;;14.85;89.22;100290.84;1753134;80;26147;-80
2022/06/22 05:17:30;;;;;;;7.87;3.87;;;;;;;14.92;89.34;100294.31;1774688;78;25813;-81
2022/06/22 05:20:02;;;;;;;5.75;3.58;;;;;;;15.02;89.20;100288.39;1767088;80;28253;-81
2022/06/22 05:22:28;;;;;;;6.83;3.67;;;;;;;15.10;88.62;100289.44;1753783;80;25768;-81
2022/06/22 05:25:00;;;;;;;8.23;4.62;;;;;;;15.15;88.20;100289.61;1765766;80;26639;-81
2022/06/22 05:27:34;;;;;;;7.03;3.47;;;;;;;15.20;88.41;100288.42;1758912;80;28083;-81
2022/06/22 05:30:07;;;;;;;6.62;3.83;;;;;;;15.28;88.42;100289.47;1760006;80;25886;-81
2022/06/22 05:32:42;;;;;;;5.33;3.47;;;;;;;15.35;88.07;100276.73;1741053;80;27523;-81
2022/06/22 05:35:14;;;;;;;11.88;5.30;;;;;;;15.42;88.33;100280.98;1755423;80;25803;-81
2022/06/22 05:37:50;;;;;;;9.13;4.20;;;;;;;15.47;88.04;100287.61;1752466;79;25935;-81
2022/06/22 05:40:19;;;;;;;7.42;3.72;;;;;;;15.57;88.78;100295.48;1757381;80;26044;-81
2022/06/22 05:42:45;;;;;;;7.22;3.80;;;;;;;15.67;87.95;100302.54;1780278;79;25934;-80
2022/06/22 05:45:23;;;;;;;7.08;3.27;;;;;;;15.79;88.19;100307.47;1748979;80;28389;-81
2022/06/22 05:47:52;;;;;;;6.92;3.33;;;;;;;15.90;88.00;100316.67;1733603;80;26746;-81
2022/06/22 05:50:44;;;;;;;5.08;3.30;;;;;;;16.02;88.57;100322.42;1752152;80;25786;-80
2022/06/22 05:53:19;;;;;;;6.80;3.67;;;;;;;16.14;88.04;100321.92;1750857;80;26206;-81
2022/06/22 05:55:59;;;;;;;6.97;3.45;;;;;;;16.21;87.11;100321.31;1750740;80;25716;-81
2022/06/22 05:58:57;;;;;;;10.08;3.80;;;;;;;16.29;86.34;100318.00;1750253;80;27640;-80
2022/06/22 06:01:50;;;;;;;6.53;3.58;;;;;;;16.34;86.35;100314.89;1745399;80;26372;-80
2022/06/22 06:04:39;;;;;;;6.78;3.50;;;;;;;16.47;86.75;100306.58;1744491;80;25968;-81
2022/06/22 06:07:26;;;;;;;6.30;3.83;;;;;;;16.55;85.71;100304.11;1740182;80;26075;-81
2022/06/22 06:09:53;;;;;;;5.95;3.90;;;;;;;16.60;85.44;100303.70;1733640;82;26033;-81
2022/06/22 06:12:33;;;;;;;7.30;4.00;;;;;;;16.69;85.95;100310.95;1731113;80;27475;-81
2022/06/22 06:15:02;;;;;;;;;;;;;;;16.79;85.68;100313.88;1755435;80;25342;-81
2022/06/22 06:17:33;;;;;;;6.00;3.47;;;;;;;16.87;84.77;100308.16;1730429;82;25772;-81
2022/06/22 06:20:02;;;;;;;11.80;4.80;;;;;;;16.93;84.75;100309.91;1728299;82;26584;-81
2022/06/22 06:22:30;;;;;;;8.05;3.47;;;;;;;17.04;84.18;100308.27;1726984;82;26199;-81
2022/06/22 06:27:58;;;;;;;9.40;3.52;;;;;;;17.25;84.39;100316.61;1732674;80;26299;-81
2022/06/22 06:30:32;;;;;;;9.03;3.20;;;;;;;17.36;83.61;100313.08;1719878;82;25848;-80
2022/06/22 06:33:22;;;;;;;6.75;3.75;;;;;;;17.45;82.53;100315.69;1733692;82;26072;-80
2022/06/22 06:35:53;;;;;;;8.73;3.83;;;;;;;17.53;83.14;100310.48;1714684;82;25828;-80
2022/06/22 06:38:50;;;;;;;7.90;3.40;;;;;;;17.63;82.19;100307.97;1730928;82;26879;-81
2022/06/22 06:41:22;;;;;;;12.10;3.10;;;;;;;17.69;82.50;100300.23;1716034;82;25718;-80
2022/06/22 06:44:02;;;;;;;14.13;4.03;;;;;;;17.76;81.58;100291.97;1719858;82;25938;-81
2022/06/22 06:46:46;;;;;;;8.38;3.62;;;;;;;17.83;80.52;100296.73;1714787;82;26630;-81
2022/06/22 06:49:33;;;;;;;10.28;3.12;;;;;;;17.89;80.44;100309.31;1742361;82;26616;-81
2022/06/22 06:52:08;;;;;;;9.25;2.80;;;;;;;17.98;80.26;100310.58;1732499;82;28283;-80
2022/06/22 06:55:15;;;;;;;9.60;5.12;;;;;;;18.07;78.92;100317.27;1720843;82;26628;-81
2022/06/22 06:57:50;;;;;;;8.85;4.15;;;;;;;18.11;79.70;100308.94;1744976;80;25705;-81
2022/06/22 07:00:17;;;;;;;9.55;2.95;;;;;;;18.23;78.76;100313.75;1729684;82;26248;-80
2022/06/22 07:02:44;;;;;;;6.10;2.90;;;;;;;18.29;78.52;100323.62;1721360;82;25773;-80
2022/06/22 07:05:18;;;;;;;6.30;2.75;;;;;;;18.27;76.74;100323.05;1731472;82;27913;-81
2022/06/22 07:08:08;;;;;;;10.60;3.47;;;;;;;18.27;77.77;100314.91;1732131;82;25747;-79
2022/06/22 07:10:42;;;;;;;4.40;3.20;;;;;;;18.37;78.04;100316.44;1720881;82;26004;-80
2022/06/22 07:13:32;;;;;;;8.63;3.22;;;;;;;18.50;79.11;100308.03;1731448;81;26094;-81
2022/06/22 07:16:03;;;;;;;7.28;3.05;;;;;;;18.63;78.18;100307.71;1723192;81;25958;-80
2022/06/22 07:18:35;;;;;;;4.75;2.95;;;;;;;18.77;78.51;100304.97;1706724;82;27465;-80
2022/06/22 07:21:19;;;;;;;6.20;4.03;;;;;;;18.87;77.97;100312.44;1718564;81;25914;-80
2022/06/22 07:24:10;;;;;;;11.75;4.17;;;;;;;18.98;78.06;100317.79;1738292;80;25914;-81
2022/06/22 07:27:23;;;;;;;9.88;3.90;;;;;;;19.07;77.85;100324.45;1730132;80;26102;-80
2022/06/22 07:30:00;;;;;;;6.40;3.15;;;;;;;19.12;77.65;100316.89;1742284;80;26134;-81
2022/06/22 07:32:41;;;;;;;7.92;3.45;;;;;;;19.21;77.09;100315.40;1733523;82;27441;-80
2022/06/22 07:35:19;;;;;;;;;;;;;;;19.18;77.31;100314.56;1733242;82;25782;-81
2022/06/22 07:37:54;;;;;;;5.20;3.30;;;;;;;19.25;76.41;100315.18;1735810;80;26012;-81
2022/06/22 07:40:25;;;;;;;5.08;3.17;;;;;;;19.33;76.96;100307.16;1719895;82;26676;-80
2022/06/22 07:42:52;;;;;;;11.05;3.42;;;;;;;19.33;75.61;100320.20;1721599;81;25796;-80
2022/06/22 07:45:21;;;;;;;6.58;3.42;;;;;;;19.38;75.83;100320.29;1740277;82;27509;-81
2022/06/22 07:48:08;;;;;;;9.00;3.60;;;;;;;19.50;75.65;100315.59;1727727;80;25877;-81
2022/06/22 07:50:43;;;;;;;5.33;2.62;;;;;;;19.58;75.55;100319.22;1733908;82;25829;-81
2022/06/22 07:53:34;;;;;;;7.78;3.25;;;;;;;19.55;74.54;100314.27;1740472;82;26940;-80
2022/06/22 07:56:12;;;;;;;8.60;3.40;;;;;;;19.58;74.52;100317.03;1714091;82;25958;-80
2022/06/22 07:58:59;;;;;;;4.50;3.10;;;;;;;19.65;74.49;100314.95;1734663;82;27546;-80
2022/06/22 08:01:35;;;;;;;6.87;2.87;;;;;;;19.66;74.85;100320.12;1749703;80;25830;-79
2022/06/22 08:04:31;;;;;;;5.22;2.75;;;;;;;19.73;74.17;100322.13;1739484;82;25816;-80
2022/06/22 08:07:12;;;;;;;5.53;3.10;;;;;;;19.76;72.99;100314.81;1717773;82;26099;-80
2022/06/22 08:10:03;;;;;;;;;;;;;;;19.85;75.47;100320.09;1713963;82;25953;-80
2022/06/22 08:12:50;;;;;;;5.92;3.10;;;;;;;19.95;74.26;100317.48;1726749;82;27569;-80
2022/06/22 08:15:18;;;;;;;5.58;2.77;;;;;;;20.07;75.10;100321.95;1729393;82;25742;-81
2022/06/22 08:17:52;;;;;;;7.85;2.52;;;;;;;20.09;72.77;100319.80;1744658;80;25327;-80
2022/06/22 08:20:27;;;;;;;6.30;2.33;;;;;;;20.09;73.08;100311.64;1741522;80;26061;-81
2022/06/22 08:22:56;;;;;;;7.65;2.20;;;;;;;20.12;71.94;100314.70;1730056;81;25797;-81
2022/06/22 08:25:23;;;;;;;6.35;2.40;;;;;;;20.18;71.19;100316.92;1740381;82;28297;-80
2022/06/22 08:27:52;;;;;;;3.30;1.82;;;;;;;20.28;71.41;100319.23;1713368;82;26463;-80
2022/06/22 08:30:20;;;;;;;3.20;2.12;;;;;;;20.32;69.67;100312.73;1740444;82;25865;-81
2022/06/22 08:32:57;;;;;;;7.92;2.10;;;;;;;20.40;69.33;100313.65;1736220;82;26084;-80
2022/06/22 08:35:34;;;;;;;4.97;2.30;;;;;;;20.47;67.39;100319.15;1725323;82;25835;-81
2022/06/22 08:38:18;;;;;;;4.70;2.15;;;;;;;20.54;69.13;100316.22;1724704;82;27461;-80
2022/06/22 08:41:26;;;;;;;4.05;2.15;;;;;;;20.61;68.74;100314.11;1714455;82;25912;-80
2022/06/22 08:44:13;;;;;;;5.40;2.75;;;;;;;20.69;68.54;100312.27;1742427;82;26265;-80
2022/06/22 08:47:00;;;;;;;6.45;2.87;;;;;;;20.84;68.22;100317.01;1735022;80;26250;-80
2022/06/22 08:50:04;;;;;;;20.25;2.50;;;;;;;20.94;66.87;100322.52;1726068;82;26517;-80
2022/06/22 08:53:17;;;;;;;9.55;2.40;;;;;;;20.99;66.29;100319.31;1733299;82;28254;-80
2022/06/22 08:56:01;;;;;;;4.12;2.22;;;;;;;21.06;66.28;100325.93;1723042;82;25728;-81
2022/06/22 08:58:47;;;;;;;4.45;2.15;;;;;;;21.03;64.67;100328.63;1733095;80;25843;-80
2022/06/22 09:01:39;;;;;;;3.80;2.10;;;;;;;21.01;64.34;100319.88;1729255;82;26072;-80
2022/06/22 09:04:46;;;;;;;4.80;2.70;;;;;;;21.01;64.83;100318.51;1718016;82;26044;-80
2022/06/22 09:07:54;;;;;;;5.78;2.25;;;;;;;21.11;65.38;100316.41;1726008;82;27468;-81
2022/06/22 09:10:32;;;;;;;5.12;2.30;;;;;;;21.14;65.10;100322.17;1697751;82;25958;-80
2022/06/22 09:13:41;;;;;;;2.33;1.62;;;;;;;21.14;63.86;100322.17;1745660;82;25920;-81
2022/06/22 09:16:23;;;;;;;5.12;2.58;;;;;;;21.13;62.44;100318.33;1729292;81;26539;-80
2022/06/22 09:19:09;;;;;;;4.85;2.60;;;;;;;21.25;64.23;100320.33;1726492;82;26284;-80
2022/06/22 09:21:57;;;;;;;6.90;2.60;;;;;;;21.25;64.49;100327.14;1729534;82;27645;-80
2022/06/22 09:25:08;;;;;;;5.45;2.20;;;;;;;21.25;64.05;100325.78;1731318;82;25789;-81
2022/06/22 09:27:54;;;;;;;;;;;;;;;21.31;64.28;100316.02;1741326;80;25789;-80
2022/06/22 09:30:38;;;;;;;5.80;1.98;;;;;;;21.41;62.34;100317.42;1726981;82;26083;-80
2022/06/22 09:33:36;;;;;;;5.45;2.35;;;;;;;21.46;62.92;100316.10;1725806;82;26510;-80
2022/06/22 09:36:32;;;;;;;4.40;2.15;;;;;;;21.50;62.51;100321.83;1739880;82;28405;-80
2022/06/22 09:39:41;;;;;;;8.13;2.90;;;;;;;21.34;62.67;100326.37;1744510;81;26232;-80
2022/06/22 09:42:37;;;;;;;5.35;2.40;;;;;;;21.13;61.94;100325.14;1730609;82;26218;-79
2022/06/22 09:45:40;;;;;;;4.22;2.22;;;;;;;21.12;62.29;100322.16;1669259;85;27007;-80
2022/06/22 09:48:45;;;;;;;2.70;2.10;;;;;;;21.16;61.67;100323.27;1718989;82;25305;-80
2022/06/22 09:51:47;;;;;;;5.80;2.55;;;;;;;21.21;59.97;100324.67;1744971;82;27641;-79
2022/06/22 09:58:23;;;;;;;5.67;2.33;;;;;;;21.38;59.70;100322.59;1736373;80;25846;-80
2022/06/22 10:01:10;;;;;;;3.73;2.37;;;;;;;21.40;60.40;100313.08;1739468;82;26037;-80
2022/06/22 10:04:06;;;;;;;6.03;2.33;;;;;;;21.50;61.23;100321.30;1720509;82;25829;-79
2022/06/22 10:06:50;;;;;;;3.70;2.72;;;;;;;21.59;61.44;100322.97;1734521;80;27537;-80
2022/06/22 10:09:44;;;;;;;3.37;2.33;;;;;;;21.53;61.37;100318.59;1732223;81;25814;-80
2022/06/22 10:12:57;;;;;;;5.62;2.10;;;;;;;21.58;61.61;100321.89;1717222;82;25832;-80
2022/06/22 10:15:51;;;;;;;3.12;2.42;;;;;;;21.68;61.82;100313.75;1726780;82;26914;-81
2022/06/22 10:18:32;;;;;;;4.62;2.58;;;;;;;21.81;59.63;100324.95;1737791;80;25864;-80
2022/06/22 10:21:08;;;;;;;;;;;;;;;21.89;59.71;100329.13;1741168;82;26899;-80
2022/06/22 10:24:32;;;;;;;4.97;2.40;;;;;;;21.91;59.76;100334.59;1726773;82;25324;-79
2022/06/22 10:27:28;;;;;;;3.98;2.27;;;;;;;21.96;59.16;100327.78;1669910;85;25792;-80
2022/06/22 10:30:18;;;;;;;5.97;2.30;;;;;;;22.04;57.01;100330.01;1654254;85;26942;-80
2022/06/22 10:32:53;;;;;;;6.17;2.17;;;;;;;22.09;59.03;100333.30;1718945;82;25949;-81
2022/06/22 10:35:47;;;;;;;5.03;2.30;;;;;;;22.19;58.90;100335.51;1724032;82;27701;-79
2022/06/22 10:38:37;;;;;;;5.72;2.62;;;;;;;22.32;58.34;100328.71;1741818;80;25859;-81
2022/06/22 10:45:11;;;;;;;2.10;1.80;;;;;;;22.44;57.56;100327.91;1737929;82;26903;-80
2022/06/22 10:48:23;;;;;;;2.40;2.20;;;;;;;22.58;57.91;100320.80;1646387;86;26427;-79
2022/06/22 10:51:20;;;;;;;3.33;1.82;;;;;;;22.71;57.48;100323.03;1649971;86;27545;-80
2022/06/22 10:54:09;;;;;;;5.55;1.90;;;;;;;22.64;57.04;100321.67;1743145;82;25854;-80
2022/06/22 10:57:07;;;;;;;4.25;1.47;;;;;;;22.66;55.12;100325.78;1737016;82;26547;-81
2022/06/22 11:00:11;;;;;;;3.90;1.67;;;;;;;22.71;55.17;100320.88;1733874;82;26817;-79
2022/06/22 11:02:55;;;;;;;3.60;1.72;;;;;;;22.76;55.75;100316.75;1722267;82;26529;-80
2022/06/22 11:06:00;;;;;;;4.25;2.30;;;;;;;22.90;57.09;100316.50;1728654;82;28328;-80
2022/06/22 11:08:53;;;;;;;3.35;2.20;;;;;;;23.02;56.57;100310.19;1732999;82;26644;-80
2022/06/22 11:11:40;;;;;;;6.47;2.40;;;;;;;22.90;55.07;100308.30;1731819;82;25966;-80
2022/06/22 11:14:26;;;;;;;4.53;1.75;;;;;;;22.88;54.68;100313.22;1719672;82;26895;-80
2022/06/22 11:17:19;;;;;;;3.37;1.85;;;;;;;22.89;54.25;100313.48;1729011;82;25943;-80
2022/06/22 11:20:23;;;;;;;2.92;1.60;;;;;;;22.79;52.86;100313.48;1723733;82;27480;-81
2022/06/22 11:22:57;;;;;;;3.87;2.22;;;;;;;22.60;53.27;100316.49;1726450;82;25950;-79
2022/06/22 11:32:39;;;;;;;2.35;1.65;;;;;;;22.57;55.24;100316.45;1714121;82;25985;-79
2022/06/22 11:35:29;;;;;;;3.33;1.70;;;;;;;22.77;54.35;100310.22;1730086;82;27478;-80
2022/06/22 11:38:24;;;;;;;2.17;1.57;;;;;;;22.86;53.18;100311.31;1726213;80;26224;-80
2022/06/22 11:41:21;;;;;;;3.10;1.70;;;;;;;22.93;52.94;100314.56;1728164;82;26504;-79
2022/06/22 11:44:19;;;;;;;3.60;1.70;;;;;;;23.01;53.30;100311.27;1723681;82;27244;-79
2022/06/22 11:46:55;;;;;;;1.90;1.42;;;;;;;23.12;53.16;100308.00;1737800;80;25705;-80
2022/06/22 11:49:51;;;;;;;1.85;1.40;;;;;;;23.26;53.83;100305.78;1732527;82;27530;-81
2022/06/22 11:52:49;;;;;;;2.87;1.90;;;;;;;23.40;54.31;100297.29;1720328;82;26244;-80
2022/06/22 11:55:43;;;;;;;2.00;1.27;;;;;;;23.55;53.70;100306.81;1742788;82;25840;-80
2022/06/22 11:58:32;;;;;;;4.22;2.20;;;;;;;23.54;51.52;100303.00;1744139;80;27297;-79
2022/06/22 12:01:20;;;;;;;2.30;1.57;;;;;;;23.53;52.89;100309.00;1738593;82;25925;-79
2022/06/22 12:04:10;;;;;;;2.85;1.50;;;;;;;23.56;51.29;100309.83;1726588;82;28468;-79
2022/06/22 12:06:51;;;;;;;2.67;1.42;;;;;;;23.60;50.90;100310.08;1735808;80;25829;-79
2022/06/22 12:09:41;;;;;;;2.75;1.42;;;;;;;23.53;49.42;100315.02;1745089;82;25870;-80
2022/06/22 12:12:37;;;;;;;2.85;1.98;;;;;;;23.52;50.78;100320.23;1743501;82;26085;-80
2022/06/22 12:15:32;;;;;;;2.35;2.10;;;;;;;23.58;50.79;100324.58;1713306;82;25660;-80
2022/06/22 12:18:46;;;;;;;3.35;1.92;;;;;;;23.57;50.64;100320.19;1720057;82;27449;-80
2022/06/22 12:21:27;;;;;;;6.28;2.02;;;;;;;23.53;50.76;100325.95;1738246;82;26001;-80
2022/06/22 12:24:25;;;;;;;2.05;1.67;;;;;;;23.34;50.12;100331.20;1716589;82;26027;-80
2022/06/22 12:27:18;;;;;;;3.65;1.52;;;;;;;23.18;50.93;100331.48;1744600;80;26482;-79
2022/06/22 12:30:17;;;;;;;4.22;1.50;;;;;;;23.16;51.66;100324.12;1721607;82;26518;-80
2022/06/22 12:33:07;;;;;;;3.05;1.60;;;;;;;23.18;50.83;100313.73;1741048;82;27545;-80
2022/06/22 12:36:07;;;;;;;2.87;1.52;;;;;;;23.19;50.05;100315.34;1744094;82;26570;-80
2022/06/22 12:38:46;;;;;;;3.40;1.60;;;;;;;23.34;49.94;100304.41;1727094;82;25948;-80
2022/06/22 12:41:33;;;;;;;4.50;1.52;;;;;;;23.47;48.07;100301.09;1741668;82;26630;-80
2022/06/22 12:44:34;;;;;;;5.08;1.60;;;;;;;23.41;48.84;100306.31;1729220;82;25813;-80
2022/06/22 12:47:26;;;;;;;2.80;1.42;;;;;;;23.50;49.14;100308.75;1713720;82;27606;-79
2022/06/22 12:50:36;;;;;;;2.50;1.40;;;;;;;23.64;48.74;100304.31;1720823;82;25861;-80
2022/06/22 12:53:08;;;;;;;1.25;1.02;;;;;;;23.62;47.29;100301.05;1713844;82;25954;-80
2022/06/22 12:55:40;;;;;;;1.22;1.12;;;;;;;23.78;48.22;100303.97;1717253;82;26720;-79
2022/06/22 12:58:17;;;;;;;2.20;1.22;;;;;;;23.91;46.66;100301.20;1740887;80;25778;-80
2022/06/22 13:00:44;;;;;;;2.30;1.17;;;;;;;23.96;48.39;100303.34;1734220;82;27563;-81